Time;durP1;ratioP1;P1;durP2;ratioP2;P2;SDS_P1;SDS_P2;PMS_P1;PMS_P2;Temp;Humidity;BMP_temperature;BMP_pressure;BME280_temperature;BME280_humidity;BME280_pressure;Samples;Min_cycle;Max_cycle;Signal;HPM_P1;HPM_P2
2023/03/05 00:01:54;;;;;;;;;;;;;;;7.72;44.27;99329.19;4437637;32;33967;-66
2023/03/05 00:04:22;;;;;;;;;;;;;;;8.14;43.11;99335.12;4450887;32;34216;-63
2023/03/05 00:06:49;;;;;;;;;;;;;;;7.30;44.89;99333.00;4447734;32;32968;-66
2023/03/05 00:09:18;;;;;;;;;;;;;;;8.16;43.53;99330.53;4443810;32;32234;-66
2023/03/05 00:11:46;;;;;;;;;;;;;;;8.03;43.41;99327.91;4438007;32;33908;-64
2023/03/05 00:14:13;;;;;;;;;;;;;;;7.89;43.25;99331.50;4441004;32;35204;-66
2023/03/05 00:16:40;;;;;;;;;;;;;;;8.15;42.62;99332.34;4447510;32;34359;-66
2023/03/05 00:19:08;;;;;;;;;;;;;;;8.03;43.10;99333.22;4445627;32;33316;-64
2023/03/05 00:21:37;;;;;;;;;;;;;;;8.73;41.33;99329.97;4453772;32;33860;-66
2023/03/05 00:24:06;;;;;;;;;;;;;;;8.01;43.22;99332.47;4449169;32;35475;-66
2023/03/05 00:26:34;;;;;;;;;;;;;;;8.35;42.00;99332.75;4440379;32;34559;-62
2023/03/05 00:29:02;;;;;;;;;;;;;;;8.42;41.94;99333.19;4444438;32;34637;-63
2023/03/05 00:31:29;;;;;;;;;;;;;;;8.10;42.95;99331.81;4440322;32;35184;-62
2023/03/05 00:33:58;;;;;;;;;;;;;;;8.37;41.64;99334.31;4438207;32;37830;-63
2023/03/05 00:36:26;;;;;;;;;;;;;;;8.66;40.99;99330.53;4448660;32;34074;-67
2023/03/05 00:38:54;;;;;;;;;;;;;;;8.70;40.96;99330.19;4439510;32;34476;-65
2023/03/05 00:41:21;;;;;;;;;;;;;;;8.76;40.70;99326.22;4447203;32;32842;-65
2023/03/05 00:43:48;;;;;;;;;;;;;;;8.85;40.62;99338.87;4445332;32;35809;-66
2023/03/05 00:46:16;;;;;;;;;;;;;;;8.56;41.33;99333.00;4442827;32;33754;-65
2023/03/05 00:48:43;;;;;;;;;;;;;;;8.33;41.79;99324.00;4438360;32;33425;-65
2023/03/05 00:51:10;;;;;;;;;;;;;;;8.63;41.11;99319.12;4437055;32;35236;-68
2023/03/05 00:53:38;;;;;;;;;;;;;;;8.52;41.10;99324.38;4445982;32;34782;-68
2023/03/05 00:56:05;;;;;;;;;;;;;;;8.29;41.52;99320.69;4444508;32;34776;-65
2023/03/05 00:58:33;;;;;;;;;;;;;;;7.78;43.05;99322.59;4437736;32;33842;-66
2023/03/05 01:01:01;;;;;;;;;;;;;;;8.17;42.39;99319.75;4445030;32;34920;-68
2023/03/05 01:03:30;;;;;;;;;;;;;;;8.26;41.77;99326.25;4444493;32;35405;-66
2023/03/05 01:05:57;;;;;;;;;;;;;;;8.46;41.45;99311.50;4438529;32;34071;-65
2023/03/05 01:08:24;;;;;;;;;;;;;;;8.68;40.79;99316.13;4446198;32;33223;-69
2023/03/05 01:10:52;;;;;;;;;;;;;;;8.09;42.23;99315.91;4438480;32;35593;-68
2023/03/05 01:13:19;;;;;;;;;;;;;;;8.58;41.11;99315.94;4439249;32;34034;-65
2023/03/05 01:15:47;;;;;;;;;;;;;;;8.15;42.58;99319.03;4438113;32;34425;-67
2023/03/05 01:18:15;;;;;;;;;;;;;;;8.57;41.11;99319.59;4437871;32;31773;-65
2023/03/05 01:20:42;;;;;;;;;;;;;;;8.68;40.81;99317.94;4437728;32;34906;-66
2023/03/05 01:23:10;;;;;;;;;;;;;;;8.25;42.34;99324.56;4445234;32;34156;-66
2023/03/05 01:25:37;;;;;;;;;;;;;;;8.81;40.70;99321.41;4444476;32;33922;-65
2023/03/05 01:28:04;;;;;;;;;;;;;;;8.97;40.35;99329.13;4443535;32;33156;-65
2023/03/05 01:30:31;;;;;;;;;;;;;;;9.14;39.80;99322.50;4444691;32;35137;-65
2023/03/05 01:32:59;;;;;;;;;;;;;;;9.14;40.00;99320.69;4447650;32;34238;-66
2023/03/05 01:35:26;;;;;;;;;;;;;;;8.90;40.26;99326.06;4437281;32;34048;-66
2023/03/05 01:37:53;;;;;;;;;;;;;;;9.11;39.92;99323.56;4435224;32;33305;-66
2023/03/05 01:40:25;;;;;;;;;;;;;;;8.99;40.06;99328.03;4435961;32;33722;-69
2023/03/05 01:43:00;;;;;;;;;;;;;;;8.72;40.26;99328.25;4435399;32;33513;-65
2023/03/05 01:45:30;;;;;;;;;;;;;;;9.10;39.83;99320.06;4435708;32;32376;-65
2023/03/05 01:47:57;;;;;;;;;;;;;;;9.17;39.63;99316.94;4436311;32;31965;-63
2023/03/05 01:50:24;;;;;;;;;;;;;;;9.15;40.28;99313.50;4441538;32;34110;-63
2023/03/05 01:52:53;;;;;;;;;;;;;;;9.12;41.27;99321.75;4449875;32;34308;-63
2023/03/05 01:55:21;;;;;;;;;;;;;;;9.13;40.18;99326.16;4439740;32;34193;-63
2023/03/05 01:57:49;;;;;;;;;;;;;;;9.19;39.80;99318.53;4442152;32;34467;-64
2023/03/05 02:00:18;;;;;;;;;;;;;;;9.05;40.32;99327.59;4444251;32;32952;-65
2023/03/05 02:02:46;;;;;;;;;;;;;;;9.21;39.73;99315.72;4448734;32;34134;-66
2023/03/05 02:05:15;;;;;;;;;;;;;;;8.10;42.64;99322.97;4439063;32;35490;-65
2023/03/05 02:07:44;;;;;;;;;;;;;;;8.98;40.54;99320.13;4435737;32;33294;-66
2023/03/05 02:10:17;;;;;;;;;;;;;;;8.98;40.86;99317.47;4436449;32;34959;-68
2023/03/05 02:12:46;;;;;;;;;;;;;;;9.21;40.05;99321.94;4449634;32;35341;-66
2023/03/05 02:15:13;;;;;;;;;;;;;;;9.04;40.33;99323.19;4434554;32;34643;-66
2023/03/05 02:17:40;;;;;;;;;;;;;;;8.92;40.72;99325.94;4444243;32;32357;-66
2023/03/05 02:20:09;;;;;;;;;;;;;;;8.89;40.97;99328.81;4436054;32;34198;-66
2023/03/05 02:22:37;;;;;;;;;;;;;;;9.16;40.15;99320.56;4434714;32;33044;-68
2023/03/05 02:25:13;;;;;;;;;;;;;;;9.17;40.12;99317.78;4439677;32;34024;-67
2023/03/05 02:27:42;;;;;;;;;;;;;;;9.17;39.99;99319.59;4435581;32;32871;-68
2023/03/05 02:30:09;;;;;;;;;;;;;;;9.43;39.53;99318.47;4433060;32;32566;-67
2023/03/05 02:32:36;;;;;;;;;;;;;;;9.14;40.23;99309.16;4434524;32;34227;-66
2023/03/05 02:35:05;;;;;;;;;;;;;;;9.35;39.75;99312.03;4436883;32;33809;-67
2023/03/05 02:37:33;;;;;;;;;;;;;;;9.33;39.87;99304.09;4450050;32;32719;-67
2023/03/05 02:40:00;;;;;;;;;;;;;;;9.30;39.98;99305.19;4444978;32;35252;-66
2023/03/05 02:42:32;;;;;;;;;;;;;;;9.36;39.73;99305.69;4436406;32;34459;-67
2023/03/05 02:45:00;;;;;;;;;;;;;;;9.21;40.12;99307.72;4439559;32;33232;-67
2023/03/05 02:47:27;;;;;;;;;;;;;;;8.79;40.86;99305.47;4445498;32;33123;-66
2023/03/05 02:49:55;;;;;;;;;;;;;;;9.09;40.40;99315.69;4436564;32;34763;-67
2023/03/05 02:52:22;;;;;;;;;;;;;;;8.99;40.55;99311.16;4439201;32;34195;-67
2023/03/05 02:54:50;;;;;;;;;;;;;;;9.18;40.11;99318.62;4438143;32;33400;-67
2023/03/05 02:57:18;;;;;;;;;;;;;;;9.20;40.09;99308.69;4439283;32;34287;-66
2023/03/05 02:59:45;;;;;;;;;;;;;;;9.31;39.68;99300.72;4451508;32;33963;-66
2023/03/05 03:02:12;;;;;;;;;;;;;;;9.33;39.72;99304.09;4443134;32;34703;-69
2023/03/05 03:04:40;;;;;;;;;;;;;;;9.45;39.30;99297.81;4446355;32;34362;-66
2023/03/05 03:07:07;;;;;;;;;;;;;;;9.29;39.61;99303.50;4450538;32;32724;-66
2023/03/05 03:09:34;;;;;;;;;;;;;;;9.23;39.88;99298.63;4439745;32;34037;-65
2023/03/05 03:12:02;;;;;;;;;;;;;;;9.31;39.51;99296.22;4445335;32;34178;-65
2023/03/05 03:14:30;;;;;;;;;;;;;;;9.50;39.08;99298.34;4439391;32;34549;-69
2023/03/05 03:16:58;;;;;;;;;;;;;;;9.44;39.14;99298.81;4436970;32;33491;-63
2023/03/05 03:19:25;;;;;;;;;;;;;;;9.59;38.92;99309.25;4434432;32;34080;-63
2023/03/05 03:21:53;;;;;;;;;;;;;;;9.60;38.91;99301.16;4438036;32;34665;-66
2023/03/05 03:24:21;;;;;;;;;;;;;;;9.32;39.47;99292.59;4447637;32;34471;-67
2023/03/05 03:26:48;;;;;;;;;;;;;;;9.42;39.18;99298.06;4437383;32;33070;-64
2023/03/05 03:29:16;;;;;;;;;;;;;;;9.41;39.27;99298.19;4456862;32;32829;-66
2023/03/05 03:31:44;;;;;;;;;;;;;;;9.59;38.62;99294.06;4441567;32;35335;-63
2023/03/05 03:34:12;;;;;;;;;;;;;;;9.55;38.60;99281.94;4443597;32;33931;-65
2023/03/05 03:36:39;;;;;;;;;;;;;;;9.47;38.82;99287.88;4434491;32;33302;-64
2023/03/05 03:39:08;;;;;;;;;;;;;;;9.47;38.78;99282.53;4436831;32;34113;-64
2023/03/05 03:41:37;;;;;;;;;;;;;;;9.45;38.74;99287.16;4435261;32;34291;-65
2023/03/05 03:44:07;;;;;;;;;;;;;;;9.43;38.79;99281.06;4434916;32;32631;-63
2023/03/05 03:46:34;;;;;;;;;;;;;;;9.40;38.79;99283.13;4441485;32;33870;-63
2023/03/05 03:49:02;;;;;;;;;;;;;;;9.38;38.61;99290.41;4448933;32;32897;-64
2023/03/05 03:51:29;;;;;;;;;;;;;;;9.27;38.64;99297.41;4437782;32;34070;-65
2023/03/05 03:53:56;;;;;;;;;;;;;;;8.99;39.42;99284.44;4436388;32;35295;-62
2023/03/05 03:56:24;;;;;;;;;;;;;;;8.93;39.69;99288.47;4435357;32;33130;-62
2023/03/05 03:58:52;;;;;;;;;;;;;;;8.85;39.93;99289.00;4444418;32;33028;-62
2023/03/05 04:01:19;;;;;;;;;;;;;;;9.00;39.43;99286.19;4438876;32;35007;-63
2023/03/05 04:03:47;;;;;;;;;;;;;;;8.92;39.88;99284.06;4441356;32;33961;-64
2023/03/05 04:06:14;;;;;;;;;;;;;;;7.97;41.45;99290.16;4437054;32;31795;-64
2023/03/05 04:08:41;;;;;;;;;;;;;;;8.75;40.22;99287.16;4449656;32;35532;-63
2023/03/05 04:11:08;;;;;;;;;;;;;;;8.44;41.03;99288.56;4438343;32;34005;-63
2023/03/05 04:13:35;;;;;;;;;;;;;;;8.78;40.22;99279.78;4437125;32;34282;-63
2023/03/05 04:16:03;;;;;;;;;;;;;;;8.89;40.09;99278.13;4438049;32;34118;-62
2023/03/05 04:18:30;;;;;;;;;;;;;;;8.99;39.69;99280.00;4445489;32;34071;-63
2023/03/05 04:20:58;;;;;;;;;;;;;;;8.99;39.78;99277.31;4435061;32;34280;-62
2023/03/05 04:23:25;;;;;;;;;;;;;;;9.02;39.76;99278.88;4441341;32;34133;-63
2023/03/05 04:25:53;;;;;;;;;;;;;;;9.09;39.64;99272.13;4440788;32;33331;-66
2023/03/05 04:28:20;;;;;;;;;;;;;;;8.88;39.93;99281.75;4436479;32;34031;-65
2023/03/05 04:30:47;;;;;;;;;;;;;;;8.84;40.04;99278.47;4450535;32;34238;-65
2023/03/05 04:33:14;;;;;;;;;;;;;;;8.97;39.72;99281.06;4440633;32;34215;-65
2023/03/05 04:35:42;;;;;;;;;;;;;;;8.99;39.96;99281.78;4436514;32;33437;-65
2023/03/05 04:38:09;;;;;;;;;;;;;;;9.03;39.71;99275.28;4441628;32;34018;-68
2023/03/05 04:40:37;;;;;;;;;;;;;;;9.04;39.69;99276.97;4443991;32;34550;-63
2023/03/05 04:43:04;;;;;;;;;;;;;;;8.82;40.25;99267.06;4438298;32;34232;-66
2023/03/05 04:45:31;;;;;;;;;;;;;;;8.89;40.15;99270.09;4437756;32;34590;-64
2023/03/05 04:47:59;;;;;;;;;;;;;;;8.96;40.10;99271.38;4441501;32;34153;-63
2023/03/05 04:50:26;;;;;;;;;;;;;;;8.93;40.32;99274.28;4436932;32;35528;-63
2023/03/05 04:52:53;;;;;;;;;;;;;;;8.88;40.43;99271.94;4446535;32;35208;-64
2023/03/05 04:55:21;;;;;;;;;;;;;;;9.04;40.15;99266.28;4444487;32;33609;-68
2023/03/05 04:57:48;;;;;;;;;;;;;;;8.98;40.42;99267.59;4440370;32;34124;-66
2023/03/05 05:00:15;;;;;;;;;;;;;;;8.95;40.71;99275.81;4443064;32;35472;-64
2023/03/05 05:02:43;;;;;;;;;;;;;;;9.01;40.80;99274.53;4437026;32;33128;-67
2023/03/05 05:05:11;;;;;;;;;;;;;;;8.95;40.63;99265.16;4442836;32;32040;-64
2023/03/05 05:07:38;;;;;;;;;;;;;;;8.92;40.83;99261.87;4436618;32;34708;-65
2023/03/05 05:10:07;;;;;;;;;;;;;;;8.89;41.02;99260.28;4442058;32;34183;-64
2023/03/05 05:12:34;;;;;;;;;;;;;;;8.58;41.68;99267.06;4440586;32;34208;-69
2023/03/05 05:15:02;;;;;;;;;;;;;;;8.74;41.51;99264.13;4440753;32;33313;-68
2023/03/05 05:17:31;;;;;;;;;;;;;;;8.95;41.17;99267.81;4441677;32;32689;-66
2023/03/05 05:19:59;;;;;;;;;;;;;;;8.96;41.12;99268.69;4436726;32;33004;-66
2023/03/05 05:22:27;;;;;;;;;;;;;;;8.86;41.45;99269.37;4433763;32;34074;-68
2023/03/05 05:24:54;;;;;;;;;;;;;;;8.83;41.69;99277.63;4439467;32;33470;-66
2023/03/05 05:27:22;;;;;;;;;;;;;;;9.06;41.29;99277.72;4443361;32;34067;-69
2023/03/05 05:29:49;;;;;;;;;;;;;;;9.02;41.51;99273.53;4460999;32;35643;-66
2023/03/05 05:32:17;;;;;;;;;;;;;;;9.13;41.26;99280.75;4443262;32;35120;-68
2023/03/05 05:34:44;;;;;;;;;;;;;;;9.00;41.59;99287.03;4440661;32;33114;-69
2023/03/05 05:37:11;;;;;;;;;;;;;;;8.78;42.26;99284.25;4434676;32;33913;-64
2023/03/05 05:39:38;;;;;;;;;;;;;;;9.02;41.72;99278.88;4438138;32;35309;-65
2023/03/05 05:42:06;;;;;;;;;;;;;;;8.88;42.01;99279.94;4453320;32;33869;-63
2023/03/05 05:44:33;;;;;;;;;;;;;;;8.80;42.24;99274.34;4434723;32;33453;-65
2023/03/05 05:47:01;;;;;;;;;;;;;;;8.98;41.86;99272.94;4434612;32;34047;-66
2023/03/05 05:49:28;;;;;;;;;;;;;;;9.22;41.60;99288.91;4435241;32;34183;-65
2023/03/05 05:51:56;;;;;;;;;;;;;;;9.30;41.70;99297.19;4438412;32;33671;-67
2023/03/05 05:54:24;;;;;;;;;;;;;;;9.31;41.43;99295.38;4448055;32;33366;-66
2023/03/05 05:56:51;;;;;;;;;;;;;;;9.24;41.63;99302.97;4448314;32;32929;-65
2023/03/05 05:59:18;;;;;;;;;;;;;;;9.03;42.16;99308.16;4444394;32;34079;-65
2023/03/05 06:01:45;;;;;;;;;;;;;;;9.22;41.81;99306.75;4443427;32;34384;-65
2023/03/05 06:04:13;;;;;;;;;;;;;;;9.31;41.63;99304.25;4436075;32;34119;-66
2023/03/05 06:06:40;;;;;;;;;;;;;;;9.41;41.40;99309.72;4437436;32;33697;-65
2023/03/05 06:09:07;;;;;;;;;;;;;;;9.45;41.25;99310.34;4434461;32;34581;-65
2023/03/05 06:11:35;;;;;;;;;;;;;;;8.93;42.44;99309.81;4444737;32;34175;-65
2023/03/05 06:14:03;;;;;;;;;;;;;;;9.45;41.47;99303.16;4444303;32;33646;-65
2023/03/05 06:16:30;;;;;;;;;;;;;;;9.47;41.67;99305.72;4440256;32;34653;-64
2023/03/05 06:18:58;;;;;;;;;;;;;;;9.70;41.19;99304.78;4437991;32;33726;-65
2023/03/05 06:21:26;;;;;;;;;;;;;;;9.51;41.36;99307.19;4436362;32;35059;-66
2023/03/05 06:23:53;;;;;;;;;;;;;;;9.39;41.61;99306.31;4439553;32;33405;-65
2023/03/05 06:26:21;;;;;;;;;;;;;;;9.79;40.73;99311.22;4443281;32;34834;-67
2023/03/05 06:28:48;;;;;;;;;;;;;;;9.32;41.90;99313.09;4451347;32;34906;-65
2023/03/05 06:31:20;;;;;;;;;;;;;;;9.69;40.94;99308.41;4436288;32;33616;-67
2023/03/05 06:33:48;;;;;;;;;;;;;;;9.91;40.60;99309.41;4452159;32;33142;-65
2023/03/05 06:36:16;;;;;;;;;;;;;;;9.91;40.50;99312.94;4447113;32;34160;-68
2023/03/05 06:38:43;;;;;;;;;;;;;;;9.55;41.17;99314.84;4446926;32;34164;-67
2023/03/05 06:41:15;;;;;;;;;;;;;;;9.90;40.35;99303.22;4450813;32;34527;-67
2023/03/05 06:43:43;;;;;;;;;;;;;;;9.95;40.17;99309.06;4441792;32;33222;-65
2023/03/05 06:46:16;;;;;;;;;;;;;;;9.82;40.54;99310.13;4437858;32;35267;-64
2023/03/05 06:48:43;;;;;;;;;;;;;;;9.90;40.51;99310.41;4437040;32;33037;-65
2023/03/05 06:51:14;;;;;;;;;;;;;;;9.92;40.42;99320.00;4446974;32;34086;-65
2023/03/05 06:53:41;;;;;;;;;;;;;;;10.17;40.08;99307.34;4441166;32;32504;-65
2023/03/05 06:56:09;;;;;;;;;;;;;;;10.25;40.28;99316.47;4442885;32;34259;-67
2023/03/05 06:58:36;;;;;;;;;;;;;;;10.24;39.75;99314.78;4450900;32;34354;-65
2023/03/05 07:01:04;;;;;;;;;;;;;;;10.30;39.68;99313.44;4445803;32;35365;-65
2023/03/05 07:03:32;;;;;;;;;;;;;;;10.30;39.75;99304.56;4448616;32;34542;-65
2023/03/05 07:06:00;;;;;;;;;;;;;;;10.32;39.92;99314.19;4440840;32;35141;-65
2023/03/05 07:08:28;;;;;;;;;;;;;;;10.22;40.36;99308.69;4435519;32;34326;-67
2023/03/05 07:10:55;;;;;;;;;;;;;;;10.15;40.42;99314.66;4448714;32;34941;-65
2023/03/05 07:13:22;;;;;;;;;;;;;;;9.90;41.05;99316.59;4443105;32;33644;-65
2023/03/05 07:15:49;;;;;;;;;;;;;;;9.83;41.22;99314.53;4439735;32;33813;-65
2023/03/05 07:18:17;;;;;;;;;;;;;;;9.48;42.05;99310.09;4437100;32;34416;-65
2023/03/05 07:20:44;;;;;;;;;;;;;;;9.80;41.15;99315.63;4441393;32;34046;-66
2023/03/05 07:23:11;;;;;;;;;;;;;;;9.69;41.37;99312.91;4438873;32;32849;-65
2023/03/05 07:25:39;;;;;;;;;;;;;;;9.61;41.72;99308.19;4439394;32;34131;-67
2023/03/05 07:28:06;;;;;;;;;;;;;;;9.87;41.30;99314.16;4440489;32;34349;-65
2023/03/05 07:30:33;;;;;;;;;;;;;;;9.61;41.74;99308.19;4449395;32;32862;-65
2023/03/05 07:33:01;;;;;;;;;;;;;;;9.72;41.53;99308.19;4440145;32;33207;-67
2023/03/05 07:35:28;;;;;;;;;;;;;;;9.57;41.57;99309.41;4442779;32;33989;-68
2023/03/05 07:37:56;;;;;;;;;;;;;;;9.51;41.96;99308.03;4442174;32;34295;-65
2023/03/05 07:40:23;;;;;;;;;;;;;;;9.61;42.00;99310.84;4445066;32;34829;-64
2023/03/05 07:42:51;;;;;;;;;;;;;;;9.54;41.99;99309.63;4442392;32;33807;-64
2023/03/05 07:45:19;;;;;;;;;;;;;;;9.78;41.72;99312.19;4449153;32;34808;-65
2023/03/05 07:47:47;;;;;;;;;;;;;;;9.76;41.60;99311.50;4445935;32;34830;-64
2023/03/05 07:50:14;;;;;;;;;;;;;;;9.30;42.28;99301.66;4445117;32;34277;-67
2023/03/05 07:52:41;;;;;;;;;;;;;;;9.07;43.25;99304.28;4442833;32;33632;-65
2023/03/05 07:55:09;;;;;;;;;;;;;;;8.71;43.92;99305.22;4443582;32;35204;-65
2023/03/05 07:57:37;;;;;;;;;;;;;;;9.04;43.45;99306.31;4452322;32;34065;-65
2023/03/05 08:00:05;;;;;;;;;;;;;;;9.40;42.81;99301.81;4441931;32;34168;-65
2023/03/05 08:02:37;;;;;;;;;;;;;;;9.51;42.76;99304.53;4442085;32;32968;-64
2023/03/05 08:05:05;;;;;;;;;;;;;;;9.57;42.27;99307.56;4440406;32;34164;-65
2023/03/05 08:07:32;;;;;;;;;;;;;;;9.40;42.63;99304.47;4445233;32;34091;-65
2023/03/05 08:09:59;;;;;;;;;;;;;;;9.90;41.84;99302.38;4442602;32;34312;-65
2023/03/05 08:12:26;;;;;;;;;;;;;;;9.58;42.38;99297.72;4450212;32;34329;-67
2023/03/05 08:14:53;;;;;;;;;;;;;;;9.94;41.64;99299.31;4450746;32;33961;-67
2023/03/05 08:17:21;;;;;;;;;;;;;;;9.83;41.59;99306.50;4440271;32;35526;-65
2023/03/05 08:19:48;;;;;;;;;;;;;;;9.73;42.30;99312.56;4436612;32;33556;-65
2023/03/05 08:22:16;;;;;;;;;;;;;;;9.77;41.95;99305.16;4443988;32;32692;-66
2023/03/05 08:24:43;;;;;;;;;;;;;;;10.29;41.02;99308.22;4440112;32;35113;-65
2023/03/05 08:27:10;;;;;;;;;;;;;;;9.93;42.03;99300.31;4443834;32;34699;-68
2023/03/05 08:29:38;;;;;;;;;;;;;;;9.99;41.78;99302.50;4437346;32;33016;-65
2023/03/05 08:32:05;;;;;;;;;;;;;;;9.84;42.35;99303.69;4437164;32;33302;-65
2023/03/05 08:34:32;;;;;;;;;;;;;;;9.65;42.22;99300.78;4445790;32;34939;-65
2023/03/05 08:37:00;;;;;;;;;;;;;;;9.64;42.79;99299.94;4451088;32;33048;-66
2023/03/05 08:39:29;;;;;;;;;;;;;;;9.85;42.55;99302.72;4454017;32;33108;-65
2023/03/05 08:41:56;;;;;;;;;;;;;;;10.32;41.15;99302.63;4444409;32;33436;-65
2023/03/05 08:44:23;;;;;;;;;;;;;;;9.96;42.09;99305.41;4439970;32;34590;-68
2023/03/05 08:46:50;;;;;;;;;;;;;;;9.79;42.41;99297.84;4445031;32;35495;-67
2023/03/05 08:49:18;;;;;;;;;;;;;;;10.30;41.00;99285.84;4448424;32;35186;-65
2023/03/05 08:51:45;;;;;;;;;;;;;;;10.17;41.51;99275.25;4450450;32;33245;-64
2023/03/05 08:54:12;;;;;;;;;;;;;;;10.46;40.79;99280.94;4442293;32;35281;-68
2023/03/05 08:56:40;;;;;;;;;;;;;;;10.31;41.38;99283.06;4441556;32;33117;-63
2023/03/05 08:59:07;;;;;;;;;;;;;;;10.52;40.85;99283.13;4450795;32;34052;-66
2023/03/05 09:01:34;;;;;;;;;;;;;;;10.83;40.04;99284.13;4450748;32;33147;-65
2023/03/05 09:04:02;;;;;;;;;;;;;;;11.06;39.98;99289.38;4440319;32;35282;-65
2023/03/05 09:06:30;;;;;;;;;;;;;;;10.87;40.96;99285.56;4449393;32;34162;-64
2023/03/05 09:08:57;;;;;;;;;;;;;;;10.68;41.06;99286.22;4450743;32;34968;-65
2023/03/05 09:11:24;;;;;;;;;;;;;;;10.79;40.79;99285.37;4453069;32;34492;-65
2023/03/05 09:13:52;;;;;;;;;;;;;;;10.49;41.40;99288.72;4426808;32;795562;-65
2023/03/05 09:16:19;;;;;;;;;;;;;;;9.92;42.77;99284.37;4442479;32;34169;-65
2023/03/05 09:18:47;;;;;;;;;;;;;;;10.47;41.75;99283.50;4443886;32;33082;-65
2023/03/05 09:21:15;;;;;;;;;;;;;;;11.04;40.64;99283.28;4452162;32;32103;-68
2023/03/05 09:23:42;;;;;;;;;;;;;;;11.27;40.29;99281.34;4444510;32;35197;-65
2023/03/05 09:26:11;;;;;;;;;;;;;;;11.05;40.53;99287.69;4441569;32;34050;-65
2023/03/05 09:28:38;;;;;;;;;;;;;;;11.28;40.28;99285.75;4439375;32;33064;-63
2023/03/05 09:31:06;;;;;;;;;;;;;;;11.32;40.38;99271.09;4438855;32;34311;-65
2023/03/05 09:33:34;;;;;;;;;;;;;;;10.93;41.15;99276.19;4445575;32;35458;-64
2023/03/05 09:36:02;;;;;;;;;;;;;;;10.90;40.92;99274.59;4443414;32;33058;-64
2023/03/05 09:38:29;;;;;;;;;;;;;;;10.34;42.42;99269.44;4441674;32;33787;-66
2023/03/05 09:41:02;;;;;;;;;;;;;;;10.76;41.59;99269.56;4444308;32;33545;-67
2023/03/05 09:43:39;;;;;;;;;;;;;;;10.77;41.38;99279.28;4435800;32;32571;-68
2023/03/05 09:46:26;;;;;;;;;;;;;;;10.91;41.08;99270.97;4436889;32;35380;-66
2023/03/05 09:49:04;;;;;;;;;;;;;;;10.77;41.03;99265.06;4409813;32;34358;-63
2023/03/05 09:51:34;;;;;;;;;;;;;;;10.60;41.66;99261.09;4432752;32;32158;-65
2023/03/05 09:54:01;;;;;;;;;;;;;;;10.03;43.30;99257.66;4434813;32;34115;-67
2023/03/05 09:56:49;;;;;;;;;;;;;;;10.65;41.34;99251.69;4445076;32;34770;-64
2023/03/05 09:59:40;;;;;;;;;;;;;;;11.06;40.27;99255.41;4446401;32;34065;-66
2023/03/05 10:02:12;;;;;;;;;;;;;;;10.85;40.71;99259.88;4441214;32;34498;-63
2023/03/05 10:05:06;;;;;;;;;;;;;;;11.21;39.60;99247.91;4442262;32;34265;-65
2023/03/05 10:07:33;;;;;;;;;;;;;;;10.49;40.62;99254.78;4443039;32;35411;-64
2023/03/05 10:10:03;;;;;;;;;;;;;;;11.12;39.50;99243.34;4447111;32;35042;-64
2023/03/05 10:12:37;;;;;;;;;;;;;;;11.15;39.61;99248.44;4445073;32;33320;-63
2023/03/05 10:15:10;;;;;;;;;;;;;;;10.38;40.57;99251.31;4440964;32;35222;-62
2023/03/05 10:17:45;;;;;;;;;;;;;;;10.38;40.72;99248.63;4444617;32;34172;-65
2023/03/05 10:20:13;;;;;;;;;;;;;;;10.42;40.74;99242.88;4438591;32;35373;-65
2023/03/05 10:22:59;;;;;;;;;;;;;;;10.20;41.02;99240.22;4439253;32;34545;-62
2023/03/05 10:25:29;;;;;;;;;;;;;;;10.09;41.11;99241.13;4437551;32;34724;-63
2023/03/05 10:28:04;;;;;;;;;;;;;;;10.28;41.53;99240.50;4436642;32;34321;-64
2023/03/05 10:30:47;;;;;;;;;;;;;;;10.39;40.73;99228.91;4436988;32;34210;-64
2023/03/05 10:33:44;;;;;;;;;;;;;;;10.58;40.13;99215.72;4437354;32;33604;-68
2023/03/05 10:36:11;;;;;;;;;;;;;;;11.35;37.91;99225.28;4428417;32;35213;-65
2023/03/05 10:38:44;;;;;;;;;;;;;;;10.66;39.33;99220.44;4434943;32;34389;-66
2023/03/05 10:41:29;;;;;;;;;;;;;;;11.01;39.21;99228.19;4439054;32;34693;-67
2023/03/05 10:44:16;;;;;;;;;;;;;;;11.93;37.58;99220.22;4440355;32;33396;-65
2023/03/05 10:46:44;;;;;;;;;;;;;;;11.77;38.01;99228.75;4436321;32;34184;-65
2023/03/05 10:49:11;;;;;;;;;;;;;;;11.98;36.76;99215.31;4434696;32;34126;-64
2023/03/05 10:51:39;;;;;;;;;;;;;;;12.19;36.21;99222.41;4435583;32;34450;-63
2023/03/05 10:54:16;;;;;;;;;;;;;;;12.31;35.46;99208.75;4446868;32;34235;-62
2023/03/05 10:56:43;;;;;;;;;;;;;;;11.95;36.74;99207.53;4440597;32;32322;-63
2023/03/05 10:59:11;;;;;;;;;;;;;;;11.70;37.08;99202.63;4438731;32;32993;-63
2023/03/05 11:01:38;;;;;;;;;;;;;;;11.25;37.75;99197.59;4446780;32;34264;-65
2023/03/05 11:04:06;;;;;;;;;;;;;;;11.48;37.66;99192.94;4452595;32;32887;-66
2023/03/05 11:06:40;;;;;;;;;;;;;;;11.26;37.90;99197.47;4450763;32;33915;-66
2023/03/05 11:09:14;;;;;;;;;;;;;;;11.46;37.22;99186.84;4443512;32;33348;-66
2023/03/05 11:11:42;;;;;;;;;;;;;;;11.89;36.50;99182.12;4444099;32;34206;-66
2023/03/05 11:14:29;;;;;;;;;;;;;;;11.93;36.34;99180.00;4443690;32;33702;-65
2023/03/05 11:16:57;;;;;;;;;;;;;;;11.87;37.03;99186.75;4439486;32;33935;-65
2023/03/05 11:19:28;;;;;;;;;;;;;;;11.50;38.19;99178.41;4442675;32;34210;-66
2023/03/05 11:22:14;;;;;;;;;;;;;;;12.18;36.66;99173.28;4442158;32;33941;-64
2023/03/05 11:24:45;;;;;;;;;;;;;;;12.15;35.89;99175.41;4447819;32;33459;-64
2023/03/05 11:27:23;;;;;;;;;;;;;;;11.42;37.17;99183.59;4441347;32;34273;-65
2023/03/05 11:29:50;;;;;;;;;;;;;;;11.27;37.68;99175.06;4439456;32;34557;-62
2023/03/05 11:32:22;;;;;;;;;;;;;;;11.67;36.85;99168.88;4448097;32;33710;-63
2023/03/05 11:34:50;;;;;;;;;;;;;;;11.57;36.88;99173.38;4444527;32;31973;-63
2023/03/05 11:37:21;;;;;;;;;;;;;;;11.50;36.41;99169.53;4440145;32;35196;-62
2023/03/05 11:39:50;;;;;;;;;;;;;;;11.82;36.12;99155.97;4438361;32;33940;-63
2023/03/05 11:42:23;;;;;;;;;;;;;;;12.14;35.98;99158.47;4444043;32;32667;-63
2023/03/05 11:44:54;;;;;;;;;;;;;;;12.37;34.93;99151.00;4441330;32;33160;-63
2023/03/05 11:47:31;;;;;;;;;;;;;;;12.50;34.67;99148.88;4437082;32;34032;-65
2023/03/05 11:50:17;;;;;;;;;;;;;;;12.18;34.97;99149.13;4444342;32;32592;-66
2023/03/05 11:52:45;;;;;;;;;;;;;;;13.08;33.68;99150.62;4445571;32;34036;-67
2023/03/05 11:55:16;;;;;;;;;;;;;;;11.87;35.58;99135.81;4446345;32;33629;-66
2023/03/05 11:57:46;;;;;;;;;;;;;;;12.36;34.79;99143.94;4451689;32;32945;-66
2023/03/05 12:00:15;;;;;;;;;;;;;;;12.07;35.54;99138.53;4445573;32;35061;-67
2023/03/05 12:02:43;;;;;;;;;;;;;;;11.36;37.41;99144.81;4438624;32;33888;-67
2023/03/05 12:05:13;;;;;;;;;;;;;;;12.17;35.38;99135.88;4439630;32;32049;-65
2023/03/05 12:07:41;;;;;;;;;;;;;;;12.21;35.52;99127.41;4447895;32;33238;-65
2023/03/05 12:10:13;;;;;;;;;;;;;;;12.24;35.25;99124.44;4445947;32;33943;-66
2023/03/05 12:12:56;;;;;;;;;;;;;;;12.37;35.92;99112.56;4442718;32;35202;-64
2023/03/05 12:15:36;;;;;;;;;;;;;;;12.73;34.68;99119.88;4443904;32;33721;-67
2023/03/05 12:18:22;;;;;;;;;;;;;;;11.35;37.09;99104.72;4443249;32;34287;-66
2023/03/05 12:20:52;;;;;;;;;;;;;;;11.68;36.70;99105.38;4442496;32;32921;-66
2023/03/05 12:23:20;;;;;;;;;;;;;;;11.64;36.27;99102.97;4444476;32;32794;-65
2023/03/05 12:25:55;;;;;;;;;;;;;;;10.86;36.59;99106.31;4445163;32;34406;-64
2023/03/05 12:28:32;;;;;;;;;;;;;;;10.41;37.50;99096.72;4443071;32;35415;-68
2023/03/05 12:31:02;;;;;;;;;;;;;;;10.61;37.40;99095.03;4444184;32;34453;-64
2023/03/05 12:33:31;;;;;;;;;;;;;;;10.84;36.88;99097.56;4439359;32;34108;-64
2023/03/05 12:36:28;;;;;;;;;;;;;;;11.12;35.97;99085.31;4449945;32;34337;-65
2023/03/05 12:38:56;;;;;;;;;;;;;;;10.06;38.53;99086.28;4423773;32;32770;-64
2023/03/05 12:41:23;;;;;;;;;;;;;;;10.44;38.30;99074.22;4438112;32;35430;-65
2023/03/05 12:44:05;;;;;;;;;;;;;;;11.33;37.42;99086.13;4439436;32;35038;-66
2023/03/05 12:46:36;;;;;;;;;;;;;;;11.67;35.83;99064.34;4441919;32;33409;-64
2023/03/05 12:49:27;;;;;;;;;;;;;;;10.91;36.43;99070.16;4449700;32;33802;-65
2023/03/05 12:51:55;;;;;;;;;;;;;;;11.08;36.31;99062.47;4441927;32;33512;-65
2023/03/05 12:54:27;;;;;;;;;;;;;;;11.28;35.84;99072.28;4437672;32;33248;-65
2023/03/05 12:56:56;;;;;;;;;;;;;;;11.65;35.28;99063.63;4440652;32;33528;-68
2023/03/05 12:59:27;;;;;;;;;;;;;;;11.62;35.06;99064.75;4443613;32;33991;-65
2023/03/05 13:01:55;;;;;;;;;;;;;;;11.23;35.41;99068.28;4442848;32;34463;-66
2023/03/05 13:04:24;;;;;;;;;;;;;;;10.93;35.80;99067.31;4446070;32;35241;-65